sensor_id;sensor_type;location;lat;lon;timestamp;P1;durP1;ratioP1;P2;durP2;ratioP2
3189;SDS011;1606;51.946;10.558;2023-10-13T00:01:56;14.70;;;8.40;;
3189;SDS011;1606;51.946;10.558;2023-10-13T00:04:25;14.03;;;7.67;;
3189;SDS011;1606;51.946;10.558;2023-10-13T00:06:54;15.63;;;8.20;;
3189;SDS011;1606;51.946;10.558;2023-10-13T00:09:23;13.20;;;8.50;;
3189;SDS011;1606;51.946;10.558;2023-10-13T00:11:52;14.10;;;7.77;;
3189;SDS011;1606;51.946;10.558;2023-10-13T00:14:24;13.90;;;8.73;;
3189;SDS011;1606;51.946;10.558;2023-10-13T00:16:59;13.40;;;8.77;;
3189;SDS011;1606;51.946;10.558;2023-10-13T00:19:30;13.43;;;8.50;;
3189;SDS011;1606;51.946;10.558;2023-10-13T00:22:10;15.23;;;8.60;;
3189;SDS011;1606;51.946;10.558;2023-10-13T00:24:42;12.17;;;8.10;;
3189;SDS011;1606;51.946;10.558;2023-10-13T00:27:13;11.93;;;7.57;;
3189;SDS011;1606;51.946;10.558;2023-10-13T00:30:01;10.23;;;6.80;;
3189;SDS011;1606;51.946;10.558;2023-10-13T00:32:48;9.37;;;6.13;;
3189;SDS011;1606;51.946;10.558;2023-10-13T00:35:21;9.67;;;5.90;;
3189;SDS011;1606;51.946;10.558;2023-10-13T00:37:55;10.47;;;5.27;;
3189;SDS011;1606;51.946;10.558;2023-10-13T00:40:24;10.67;;;5.63;;
3189;SDS011;1606;51.946;10.558;2023-10-13T00:43:10;9.47;;;5.20;;
3189;SDS011;1606;51.946;10.558;2023-10-13T00:45:58;11.83;;;6.00;;
3189;SDS011;1606;51.946;10.558;2023-10-13T00:48:35;10.43;;;5.70;;
3189;SDS011;1606;51.946;10.558;2023-10-13T00:51:09;12.43;;;6.27;;
3189;SDS011;1606;51.946;10.558;2023-10-13T00:53:59;10.20;;;5.70;;
3189;SDS011;1606;51.946;10.558;2023-10-13T00:56:29;10.40;;;6.00;;
3189;SDS011;1606;51.946;10.558;2023-10-13T00:58:58;9.90;;;5.60;;
3189;SDS011;1606;51.946;10.558;2023-10-13T01:01:30;11.93;;;5.80;;
3189;SDS011;1606;51.946;10.558;2023-10-13T01:03:59;9.43;;;5.70;;
3189;SDS011;1606;51.946;10.558;2023-10-13T01:06:30;9.80;;;5.77;;
3189;SDS011;1606;51.946;10.558;2023-10-13T01:08:58;12.30;;;6.07;;
3189;SDS011;1606;51.946;10.558;2023-10-13T01:11:26;9.20;;;5.73;;
3189;SDS011;1606;51.946;10.558;2023-10-13T01:13:56;13.40;;;5.97;;
3189;SDS011;1606;51.946;10.558;2023-10-13T01:16:23;9.67;;;5.90;;
3189;SDS011;1606;51.946;10.558;2023-10-13T01:18:54;9.83;;;5.10;;
3189;SDS011;1606;51.946;10.558;2023-10-13T01:21:26;9.60;;;4.67;;
3189;SDS011;1606;51.946;10.558;2023-10-13T01:23:56;10.27;;;5.40;;
3189;SDS011;1606;51.946;10.558;2023-10-13T01:26:23;11.20;;;6.43;;
3189;SDS011;1606;51.946;10.558;2023-10-13T01:28:56;10.37;;;5.73;;
3189;SDS011;1606;51.946;10.558;2023-10-13T01:31:24;9.87;;;6.20;;
3189;SDS011;1606;51.946;10.558;2023-10-13T01:33:54;9.93;;;5.43;;
3189;SDS011;1606;51.946;10.558;2023-10-13T01:36:24;11.97;;;6.07;;
3189;SDS011;1606;51.946;10.558;2023-10-13T01:38:53;10.60;;;5.33;;
3189;SDS011;1606;51.946;10.558;2023-10-13T01:41:21;9.30;;;4.83;;
3189;SDS011;1606;51.946;10.558;2023-10-13T01:43:50;10.00;;;4.87;;
3189;SDS011;1606;51.946;10.558;2023-10-13T01:46:17;12.13;;;5.67;;
3189;SDS011;1606;51.946;10.558;2023-10-13T01:48:48;11.87;;;5.90;;
3189;SDS011;1606;51.946;10.558;2023-10-13T01:51:15;10.93;;;5.80;;
3189;SDS011;1606;51.946;10.558;2023-10-13T01:53:43;13.90;;;5.53;;
3189;SDS011;1606;51.946;10.558;2023-10-13T01:56:10;11.37;;;5.00;;
3189;SDS011;1606;51.946;10.558;2023-10-13T01:58:39;9.30;;;5.27;;
3189;SDS011;1606;51.946;10.558;2023-10-13T02:01:14;9.90;;;5.83;;
3189;SDS011;1606;51.946;10.558;2023-10-13T02:03:53;12.43;;;5.90;;
3189;SDS011;1606;51.946;10.558;2023-10-13T02:06:27;13.13;;;6.53;;
3189;SDS011;1606;51.946;10.558;2023-10-13T02:08:59;10.00;;;4.83;;
3189;SDS011;1606;51.946;10.558;2023-10-13T02:11:37;12.53;;;4.90;;
3189;SDS011;1606;51.946;10.558;2023-10-13T02:14:07;12.60;;;4.37;;
3189;SDS011;1606;51.946;10.558;2023-10-13T02:16:38;8.80;;;5.10;;
3189;SDS011;1606;51.946;10.558;2023-10-13T02:19:06;8.97;;;4.73;;
3189;SDS011;1606;51.946;10.558;2023-10-13T02:21:35;7.90;;;4.50;;
3189;SDS011;1606;51.946;10.558;2023-10-13T02:24:06;8.60;;;4.33;;
3189;SDS011;1606;51.946;10.558;2023-10-13T02:26:39;8.80;;;5.10;;
3189;SDS011;1606;51.946;10.558;2023-10-13T02:29:09;10.00;;;4.50;;
3189;SDS011;1606;51.946;10.558;2023-10-13T02:31:39;11.63;;;5.23;;
3189;SDS011;1606;51.946;10.558;2023-10-13T02:34:09;10.43;;;4.20;;
3189;SDS011;1606;51.946;10.558;2023-10-13T02:36:40;9.17;;;4.53;;
3189;SDS011;1606;51.946;10.558;2023-10-13T02:39:13;7.57;;;3.83;;
3189;SDS011;1606;51.946;10.558;2023-10-13T02:41:43;10.53;;;4.37;;
3189;SDS011;1606;51.946;10.558;2023-10-13T02:44:15;12.50;;;5.50;;
3189;SDS011;1606;51.946;10.558;2023-10-13T02:46:53;8.70;;;4.83;;
3189;SDS011;1606;51.946;10.558;2023-10-13T02:49:22;18.20;;;5.80;;
3189;SDS011;1606;51.946;10.558;2023-10-13T02:51:52;9.60;;;6.23;;
3189;SDS011;1606;51.946;10.558;2023-10-13T02:54:22;11.27;;;6.70;;
3189;SDS011;1606;51.946;10.558;2023-10-13T02:56:56;12.10;;;6.00;;
3189;SDS011;1606;51.946;10.558;2023-10-13T02:59:27;11.30;;;5.93;;
3189;SDS011;1606;51.946;10.558;2023-10-13T03:02:05;10.90;;;5.73;;
3189;SDS011;1606;51.946;10.558;2023-10-13T03:04:44;9.70;;;6.37;;
3189;SDS011;1606;51.946;10.558;2023-10-13T03:07:13;10.57;;;6.03;;
3189;SDS011;1606;51.946;10.558;2023-10-13T03:09:48;10.50;;;6.13;;
3189;SDS011;1606;51.946;10.558;2023-10-13T03:12:19;11.83;;;7.20;;
3189;SDS011;1606;51.946;10.558;2023-10-13T03:14:48;12.00;;;7.00;;
3189;SDS011;1606;51.946;10.558;2023-10-13T03:17:21;13.43;;;7.03;;
3189;SDS011;1606;51.946;10.558;2023-10-13T03:19:59;11.97;;;6.50;;
3189;SDS011;1606;51.946;10.558;2023-10-13T03:22:31;10.50;;;6.07;;
3189;SDS011;1606;51.946;10.558;2023-10-13T03:24:59;10.93;;;6.50;;
3189;SDS011;1606;51.946;10.558;2023-10-13T03:27:32;9.27;;;5.80;;
3189;SDS011;1606;51.946;10.558;2023-10-13T03:30:09;10.70;;;6.27;;
3189;SDS011;1606;51.946;10.558;2023-10-13T03:32:40;11.57;;;7.20;;
3189;SDS011;1606;51.946;10.558;2023-10-13T03:35:12;11.27;;;6.10;;
3189;SDS011;1606;51.946;10.558;2023-10-13T03:37:50;10.80;;;6.23;;
3189;SDS011;1606;51.946;10.558;2023-10-13T03:40:18;12.50;;;7.10;;
3189;SDS011;1606;51.946;10.558;2023-10-13T03:43:00;11.50;;;6.77;;
3189;SDS011;1606;51.946;10.558;2023-10-13T03:45:33;11.77;;;7.40;;
3189;SDS011;1606;51.946;10.558;2023-10-13T03:48:08;9.10;;;6.00;;
3189;SDS011;1606;51.946;10.558;2023-10-13T03:50:38;11.03;;;6.10;;
3189;SDS011;1606;51.946;10.558;2023-10-13T03:53:13;11.07;;;7.37;;
3189;SDS011;1606;51.946;10.558;2023-10-13T03:55:41;11.00;;;5.97;;
3189;SDS011;1606;51.946;10.558;2023-10-13T03:58:14;13.03;;;6.60;;
3189;SDS011;1606;51.946;10.558;2023-10-13T04:00:44;11.73;;;7.27;;
3189;SDS011;1606;51.946;10.558;2023-10-13T04:03:13;11.50;;;5.60;;
3189;SDS011;1606;51.946;10.558;2023-10-13T04:05:44;10.73;;;6.70;;
3189;SDS011;1606;51.946;10.558;2023-10-13T04:08:27;10.95;;;5.80;;
3189;SDS011;1606;51.946;10.558;2023-10-13T04:11:34;12.70;;;6.37;;
3189;SDS011;1606;51.946;10.558;2023-10-13T04:14:37;12.13;;;6.50;;
3189;SDS011;1606;51.946;10.558;2023-10-13T04:17:25;11.50;;;5.90;;
3189;SDS011;1606;51.946;10.558;2023-10-13T04:19:54;8.80;;;5.33;;
3189;SDS011;1606;51.946;10.558;2023-10-13T04:22:38;12.70;;;7.20;;
3189;SDS011;1606;51.946;10.558;2023-10-13T04:25:21;9.50;;;6.23;;
3189;SDS011;1606;51.946;10.558;2023-10-13T04:28:01;10.63;;;5.53;;
3189;SDS011;1606;51.946;10.558;2023-10-13T04:30:43;11.63;;;6.80;;
3189;SDS011;1606;51.946;10.558;2023-10-13T04:33:27;14.60;;;6.33;;
3189;SDS011;1606;51.946;10.558;2023-10-13T04:36:11;10.10;;;5.60;;
3189;SDS011;1606;51.946;10.558;2023-10-13T04:38:43;13.13;;;6.67;;
3189;SDS011;1606;51.946;10.558;2023-10-13T04:41:23;10.40;;;5.80;;
3189;SDS011;1606;51.946;10.558;2023-10-13T04:43:58;9.80;;;5.47;;
3189;SDS011;1606;51.946;10.558;2023-10-13T04:46:31;15.57;;;6.37;;
3189;SDS011;1606;51.946;10.558;2023-10-13T04:49:38;11.03;;;5.50;;
3189;SDS011;1606;51.946;10.558;2023-10-13T04:52:18;9.40;;;5.60;;
3189;SDS011;1606;51.946;10.558;2023-10-13T04:55:17;11.77;;;5.90;;
3189;SDS011;1606;51.946;10.558;2023-10-13T04:58:10;11.30;;;6.00;;
3189;SDS011;1606;51.946;10.558;2023-10-13T05:00:41;11.90;;;6.43;;
3189;SDS011;1606;51.946;10.558;2023-10-13T05:03:50;10.73;;;5.37;;
3189;SDS011;1606;51.946;10.558;2023-10-13T05:06:36;12.83;;;6.20;;
3189;SDS011;1606;51.946;10.558;2023-10-13T05:09:24;11.60;;;5.93;;
3189;SDS011;1606;51.946;10.558;2023-10-13T05:12:09;12.80;;;5.93;;
3189;SDS011;1606;51.946;10.558;2023-10-13T05:14:55;9.67;;;5.50;;
3189;SDS011;1606;51.946;10.558;2023-10-13T05:17:40;12.27;;;6.20;;
3189;SDS011;1606;51.946;10.558;2023-10-13T05:20:26;12.33;;;6.00;;
3189;SDS011;1606;51.946;10.558;2023-10-13T05:23:13;11.73;;;6.30;;
3189;SDS011;1606;51.946;10.558;2023-10-13T05:26:00;12.23;;;5.47;;
3189;SDS011;1606;51.946;10.558;2023-10-13T05:28:46;15.70;;;6.40;;
3189;SDS011;1606;51.946;10.558;2023-10-13T05:31:52;12.47;;;5.43;;
3189;SDS011;1606;51.946;10.558;2023-10-13T05:34:37;13.60;;;6.40;;
3189;SDS011;1606;51.946;10.558;2023-10-13T05:37:23;12.60;;;6.20;;
3189;SDS011;1606;51.946;10.558;2023-10-13T05:40:10;12.97;;;6.50;;
3189;SDS011;1606;51.946;10.558;2023-10-13T05:42:56;12.20;;;6.87;;
3189;SDS011;1606;51.946;10.558;2023-10-13T05:45:41;12.73;;;5.53;;
3189;SDS011;1606;51.946;10.558;2023-10-13T05:48:23;11.40;;;5.47;;
3189;SDS011;1606;51.946;10.558;2023-10-13T05:51:08;11.37;;;5.57;;
3189;SDS011;1606;51.946;10.558;2023-10-13T05:53:53;9.37;;;6.07;;
3189;SDS011;1606;51.946;10.558;2023-10-13T05:56:40;9.43;;;5.93;;
3189;SDS011;1606;51.946;10.558;2023-10-13T05:59:26;11.73;;;5.73;;
3189;SDS011;1606;51.946;10.558;2023-10-13T06:02:11;11.40;;;5.80;;
3189;SDS011;1606;51.946;10.558;2023-10-13T06:04:57;9.47;;;6.00;;
3189;SDS011;1606;51.946;10.558;2023-10-13T06:07:45;12.63;;;6.37;;
3189;SDS011;1606;51.946;10.558;2023-10-13T06:10:31;11.17;;;5.53;;
3189;SDS011;1606;51.946;10.558;2023-10-13T06:13:18;9.50;;;5.33;;
3189;SDS011;1606;51.946;10.558;2023-10-13T06:16:04;11.73;;;5.80;;
3189;SDS011;1606;51.946;10.558;2023-10-13T06:18:50;11.37;;;6.20;;
3189;SDS011;1606;51.946;10.558;2023-10-13T06:21:36;9.90;;;5.67;;
3189;SDS011;1606;51.946;10.558;2023-10-13T06:24:21;14.17;;;6.30;;
3189;SDS011;1606;51.946;10.558;2023-10-13T06:27:07;14.17;;;6.13;;
3189;SDS011;1606;51.946;10.558;2023-10-13T06:29:54;11.20;;;6.43;;
3189;SDS011;1606;51.946;10.558;2023-10-13T06:32:22;9.50;;;5.53;;
3189;SDS011;1606;51.946;10.558;2023-10-13T06:34:52;12.10;;;4.93;;
3189;SDS011;1606;51.946;10.558;2023-10-13T06:37:24;11.80;;;5.43;;
3189;SDS011;1606;51.946;10.558;2023-10-13T06:40:00;12.03;;;5.73;;
3189;SDS011;1606;51.946;10.558;2023-10-13T06:42:32;13.00;;;5.40;;
3189;SDS011;1606;51.946;10.558;2023-10-13T06:45:03;11.68;;;5.50;;
3189;SDS011;1606;51.946;10.558;2023-10-13T06:47:35;9.80;;;5.70;;
3189;SDS011;1606;51.946;10.558;2023-10-13T06:50:06;12.97;;;6.13;;
3189;SDS011;1606;51.946;10.558;2023-10-13T06:52:41;12.43;;;6.10;;
3189;SDS011;1606;51.946;10.558;2023-10-13T06:55:10;10.93;;;5.90;;
3189;SDS011;1606;51.946;10.558;2023-10-13T06:57:43;12.73;;;6.40;;
3189;SDS011;1606;51.946;10.558;2023-10-13T07:00:14;10.70;;;6.63;;
3189;SDS011;1606;51.946;10.558;2023-10-13T07:02:55;14.60;;;6.10;;
3189;SDS011;1606;51.946;10.558;2023-10-13T07:05:34;11.73;;;6.83;;
3189;SDS011;1606;51.946;10.558;2023-10-13T07:08:05;10.03;;;4.97;;
3189;SDS011;1606;51.946;10.558;2023-10-13T07:10:33;11.67;;;4.70;;
3189;SDS011;1606;51.946;10.558;2023-10-13T07:13:11;10.53;;;5.20;;
3189;SDS011;1606;51.946;10.558;2023-10-13T07:15:41;11.10;;;5.73;;
3189;SDS011;1606;51.946;10.558;2023-10-13T07:18:12;16.20;;;6.50;;
3189;SDS011;1606;51.946;10.558;2023-10-13T07:20:41;10.47;;;6.60;;
3189;SDS011;1606;51.946;10.558;2023-10-13T07:23:11;8.97;;;4.60;;
3189;SDS011;1606;51.946;10.558;2023-10-13T07:25:50;13.17;;;5.93;;
3189;SDS011;1606;51.946;10.558;2023-10-13T07:28:20;9.37;;;5.07;;
3189;SDS011;1606;51.946;10.558;2023-10-13T07:30:49;10.43;;;5.80;;
3189;SDS011;1606;51.946;10.558;2023-10-13T07:33:37;11.27;;;6.07;;
3189;SDS011;1606;51.946;10.558;2023-10-13T07:36:07;10.40;;;5.37;;
3189;SDS011;1606;51.946;10.558;2023-10-13T07:38:44;13.20;;;5.20;;
3189;SDS011;1606;51.946;10.558;2023-10-13T07:41:47;12.83;;;6.13;;
3189;SDS011;1606;51.946;10.558;2023-10-13T07:44:18;10.57;;;5.43;;
3189;SDS011;1606;51.946;10.558;2023-10-13T07:46:53;9.20;;;5.70;;
3189;SDS011;1606;51.946;10.558;2023-10-13T07:49:29;11.33;;;5.20;;
3189;SDS011;1606;51.946;10.558;2023-10-13T07:51:58;10.13;;;4.70;;
3189;SDS011;1606;51.946;10.558;2023-10-13T07:54:42;9.03;;;4.50;;
3189;SDS011;1606;51.946;10.558;2023-10-13T07:57:13;7.93;;;3.97;;
3189;SDS011;1606;51.946;10.558;2023-10-13T07:59:42;9.63;;;4.40;;
3189;SDS011;1606;51.946;10.558;2023-10-13T08:02:19;9.30;;;4.57;;
3189;SDS011;1606;51.946;10.558;2023-10-13T08:05:13;8.50;;;3.50;;
3189;SDS011;1606;51.946;10.558;2023-10-13T08:07:50;8.23;;;3.63;;
3189;SDS011;1606;51.946;10.558;2023-10-13T08:10:19;11.47;;;4.50;;
3189;SDS011;1606;51.946;10.558;2023-10-13T08:12:56;8.90;;;3.90;;
3189;SDS011;1606;51.946;10.558;2023-10-13T08:15:25;8.33;;;3.23;;
3189;SDS011;1606;51.946;10.558;2023-10-13T08:18:00;8.70;;;3.90;;
3189;SDS011;1606;51.946;10.558;2023-10-13T08:20:43;8.50;;;3.30;;
3189;SDS011;1606;51.946;10.558;2023-10-13T08:23:11;7.97;;;3.07;;
3189;SDS011;1606;51.946;10.558;2023-10-13T08:25:46;7.57;;;3.60;;
3189;SDS011;1606;51.946;10.558;2023-10-13T08:28:34;8.87;;;3.87;;
3189;SDS011;1606;51.946;10.558;2023-10-13T08:31:23;9.13;;;3.37;;
3189;SDS011;1606;51.946;10.558;2023-10-13T08:33:57;10.23;;;3.03;;
3189;SDS011;1606;51.946;10.558;2023-10-13T08:36:32;9.40;;;3.30;;
3189;SDS011;1606;51.946;10.558;2023-10-13T08:39:04;7.90;;;3.37;;
3189;SDS011;1606;51.946;10.558;2023-10-13T08:42:03;8.30;;;3.20;;
3189;SDS011;1606;51.946;10.558;2023-10-13T08:44:38;8.53;;;3.80;;
3189;SDS011;1606;51.946;10.558;2023-10-13T08:47:12;9.67;;;4.90;;
3189;SDS011;1606;51.946;10.558;2023-10-13T08:49:47;10.10;;;3.70;;
3189;SDS011;1606;51.946;10.558;2023-10-13T08:52:18;11.40;;;4.10;;
3189;SDS011;1606;51.946;10.558;2023-10-13T08:55:12;8.53;;;4.37;;
3189;SDS011;1606;51.946;10.558;2023-10-13T08:57:55;9.47;;;4.40;;
3189;SDS011;1606;51.946;10.558;2023-10-13T09:00:29;10.27;;;5.00;;
3189;SDS011;1606;51.946;10.558;2023-10-13T09:03:22;12.30;;;5.77;;
3189;SDS011;1606;51.946;10.558;2023-10-13T09:05:58;12.70;;;5.40;;
3189;SDS011;1606;51.946;10.558;2023-10-13T09:08:28;9.97;;;5.70;;
3189;SDS011;1606;51.946;10.558;2023-10-13T09:11:10;13.20;;;4.87;;
3189;SDS011;1606;51.946;10.558;2023-10-13T09:13:39;10.93;;;4.70;;
3189;SDS011;1606;51.946;10.558;2023-10-13T09:16:13;13.17;;;6.13;;
3189;SDS011;1606;51.946;10.558;2023-10-13T09:18:48;10.93;;;5.50;;
3189;SDS011;1606;51.946;10.558;2023-10-13T09:21:20;13.87;;;5.50;;
3189;SDS011;1606;51.946;10.558;2023-10-13T09:24:10;15.07;;;5.40;;
3189;SDS011;1606;51.946;10.558;2023-10-13T09:26:58;16.83;;;6.90;;
3189;SDS011;1606;51.946;10.558;2023-10-13T09:29:28;12.80;;;5.57;;
3189;SDS011;1606;51.946;10.558;2023-10-13T09:32:01;11.57;;;5.20;;
3189;SDS011;1606;51.946;10.558;2023-10-13T09:34:30;14.03;;;6.20;;
3189;SDS011;1606;51.946;10.558;2023-10-13T09:37:03;18.43;;;6.37;;
3189;SDS011;1606;51.946;10.558;2023-10-13T09:39:30;11.77;;;5.83;;
3189;SDS011;1606;51.946;10.558;2023-10-13T09:42:11;11.67;;;5.63;;
3189;SDS011;1606;51.946;10.558;2023-10-13T09:44:43;10.70;;;5.87;;
3189;SDS011;1606;51.946;10.558;2023-10-13T09:47:17;13.63;;;6.20;;
3189;SDS011;1606;51.946;10.558;2023-10-13T09:49:59;13.20;;;5.80;;
3189;SDS011;1606;51.946;10.558;2023-10-13T09:52:41;15.93;;;5.80;;
3189;SDS011;1606;51.946;10.558;2023-10-13T09:55:13;11.70;;;5.40;;
3189;SDS011;1606;51.946;10.558;2023-10-13T09:57:49;14.20;;;5.67;;
3189;SDS011;1606;51.946;10.558;2023-10-13T10:00:25;18.13;;;5.77;;
3189;SDS011;1606;51.946;10.558;2023-10-13T10:03:12;17.00;;;5.67;;
3189;SDS011;1606;51.946;10.558;2023-10-13T10:05:57;10.93;;;5.43;;
3189;SDS011;1606;51.946;10.558;2023-10-13T10:08:34;11.73;;;5.57;;
3189;SDS011;1606;51.946;10.558;2023-10-13T10:14:13;18.13;;;7.30;;
3189;SDS011;1606;51.946;10.558;2023-10-13T10:16:50;15.87;;;6.57;;
3189;SDS011;1606;51.946;10.558;2023-10-13T10:19:30;16.10;;;6.53;;
3189;SDS011;1606;51.946;10.558;2023-10-13T10:22:02;15.83;;;5.43;;
3189;SDS011;1606;51.946;10.558;2023-10-13T10:24:55;15.87;;;5.90;;
3189;SDS011;1606;51.946;10.558;2023-10-13T10:27:24;16.77;;;5.70;;
3189;SDS011;1606;51.946;10.558;2023-10-13T10:29:54;18.60;;;6.27;;
3189;SDS011;1606;51.946;10.558;2023-10-13T10:32:31;19.47;;;7.50;;
3189;SDS011;1606;51.946;10.558;2023-10-13T10:35:05;15.23;;;5.43;;
3189;SDS011;1606;51.946;10.558;2023-10-13T10:37:43;18.73;;;6.53;;
3189;SDS011;1606;51.946;10.558;2023-10-13T10:40:17;15.20;;;5.73;;
3189;SDS011;1606;51.946;10.558;2023-10-13T10:43:13;17.40;;;5.83;;
3189;SDS011;1606;51.946;10.558;2023-10-13T10:45:58;12.80;;;6.30;;
3189;SDS011;1606;51.946;10.558;2023-10-13T10:48:27;16.13;;;6.40;;
3189;SDS011;1606;51.946;10.558;2023-10-13T10:51:01;13.90;;;6.27;;
3189;SDS011;1606;51.946;10.558;2023-10-13T10:53:40;19.53;;;6.83;;
3189;SDS011;1606;51.946;10.558;2023-10-13T10:56:13;13.97;;;6.00;;
3189;SDS011;1606;51.946;10.558;2023-10-13T10:58:53;13.10;;;5.70;;
3189;SDS011;1606;51.946;10.558;2023-10-13T11:01:26;20.50;;;6.87;;
3189;SDS011;1606;51.946;10.558;2023-10-13T11:04:05;15.97;;;6.20;;
3189;SDS011;1606;51.946;10.558;2023-10-13T11:06:45;13.47;;;5.47;;
3189;SDS011;1606;51.946;10.558;2023-10-13T11:09:14;14.70;;;6.37;;
3189;SDS011;1606;51.946;10.558;2023-10-13T11:12:09;15.20;;;5.70;;
3189;SDS011;1606;51.946;10.558;2023-10-13T11:14:59;15.80;;;5.87;;
3189;SDS011;1606;51.946;10.558;2023-10-13T11:17:28;18.83;;;5.47;;
3189;SDS011;1606;51.946;10.558;2023-10-13T11:20:09;13.87;;;6.17;;
3189;SDS011;1606;51.946;10.558;2023-10-13T11:22:47;14.20;;;5.67;;
3189;SDS011;1606;51.946;10.558;2023-10-13T11:25:20;16.23;;;5.73;;
3189;SDS011;1606;51.946;10.558;2023-10-13T11:27:57;13.30;;;5.80;;
3189;SDS011;1606;51.946;10.558;2023-10-13T11:30:32;14.40;;;6.57;;
3189;SDS011;1606;51.946;10.558;2023-10-13T11:33:08;22.57;;;6.87;;
3189;SDS011;1606;51.946;10.558;2023-10-13T11:35:38;18.13;;;6.43;;
3189;SDS011;1606;51.946;10.558;2023-10-13T11:38:22;15.07;;;6.63;;
3189;SDS011;1606;51.946;10.558;2023-10-13T11:40:55;14.73;;;5.87;;
3189;SDS011;1606;51.946;10.558;2023-10-13T11:43:43;15.80;;;6.03;;
3189;SDS011;1606;51.946;10.558;2023-10-13T11:46:30;14.60;;;6.73;;
3189;SDS011;1606;51.946;10.558;2023-10-13T11:49:16;13.33;;;6.10;;
3189;SDS011;1606;51.946;10.558;2023-10-13T11:51:45;18.77;;;7.20;;
3189;SDS011;1606;51.946;10.558;2023-10-13T11:54:14;11.33;;;5.90;;
3189;SDS011;1606;51.946;10.558;2023-10-13T11:56:45;13.47;;;6.33;;
3189;SDS011;1606;51.946;10.558;2023-10-13T11:59:14;15.60;;;6.43;;
3189;SDS011;1606;51.946;10.558;2023-10-13T12:01:47;15.77;;;6.60;;
3189;SDS011;1606;51.946;10.558;2023-10-13T12:04:35;13.83;;;5.80;;
3189;SDS011;1606;51.946;10.558;2023-10-13T12:07:10;21.33;;;7.13;;
3189;SDS011;1606;51.946;10.558;2023-10-13T12:09:43;22.60;;;7.83;;
3189;SDS011;1606;51.946;10.558;2023-10-13T12:12:34;14.07;;;6.57;;
3189;SDS011;1606;51.946;10.558;2023-10-13T12:15:10;17.93;;;6.47;;
3189;SDS011;1606;51.946;10.558;2023-10-13T12:17:52;17.47;;;7.00;;
3189;SDS011;1606;51.946;10.558;2023-10-13T12:20:26;14.57;;;6.00;;
3189;SDS011;1606;51.946;10.558;2023-10-13T12:23:00;21.27;;;6.80;;
3189;SDS011;1606;51.946;10.558;2023-10-13T12:25:41;20.17;;;7.87;;
3189;SDS011;1606;51.946;10.558;2023-10-13T12:28:24;14.77;;;7.20;;
3189;SDS011;1606;51.946;10.558;2023-10-13T12:30:56;16.10;;;6.43;;
3189;SDS011;1606;51.946;10.558;2023-10-13T12:33:33;16.93;;;6.23;;
3189;SDS011;1606;51.946;10.558;2023-10-13T12:36:06;17.47;;;6.77;;
3189;SDS011;1606;51.946;10.558;2023-10-13T12:38:37;15.57;;;6.23;;
3189;SDS011;1606;51.946;10.558;2023-10-13T12:41:23;14.90;;;6.37;;
3189;SDS011;1606;51.946;10.558;2023-10-13T12:44:17;12.20;;;6.30;;
3189;SDS011;1606;51.946;10.558;2023-10-13T12:47:04;18.33;;;7.00;;
3189;SDS011;1606;51.946;10.558;2023-10-13T12:49:50;15.23;;;7.57;;
3189;SDS011;1606;51.946;10.558;2023-10-13T12:52:34;15.57;;;6.73;;
3189;SDS011;1606;51.946;10.558;2023-10-13T12:55:02;22.83;;;7.40;;
3189;SDS011;1606;51.946;10.558;2023-10-13T12:57:36;16.30;;;6.90;;
3189;SDS011;1606;51.946;10.558;2023-10-13T13:00:11;16.13;;;6.30;;
3189;SDS011;1606;51.946;10.558;2023-10-13T13:02:51;18.43;;;7.90;;
3189;SDS011;1606;51.946;10.558;2023-10-13T13:05:22;13.60;;;6.40;;
3189;SDS011;1606;51.946;10.558;2023-10-13T13:07:55;13.57;;;6.47;;
3189;SDS011;1606;51.946;10.558;2023-10-13T13:10:24;13.07;;;6.67;;
3189;SDS011;1606;51.946;10.558;2023-10-13T13:13:02;16.40;;;7.00;;
3189;SDS011;1606;51.946;10.558;2023-10-13T13:15:31;16.00;;;7.00;;
3189;SDS011;1606;51.946;10.558;2023-10-13T13:18:01;16.17;;;6.53;;
3189;SDS011;1606;51.946;10.558;2023-10-13T13:20:37;15.30;;;5.83;;
3189;SDS011;1606;51.946;10.558;2023-10-13T13:23:19;26.30;;;8.00;;
3189;SDS011;1606;51.946;10.558;2023-10-13T13:25:47;14.37;;;7.17;;
3189;SDS011;1606;51.946;10.558;2023-10-13T13:28:15;19.10;;;7.13;;
3189;SDS011;1606;51.946;10.558;2023-10-13T13:30:44;16.30;;;6.70;;
3189;SDS011;1606;51.946;10.558;2023-10-13T13:33:18;18.33;;;7.10;;
3189;SDS011;1606;51.946;10.558;2023-10-13T13:35:52;16.40;;;7.30;;
3189;SDS011;1606;51.946;10.558;2023-10-13T13:38:21;16.03;;;7.50;;
3189;SDS011;1606;51.946;10.558;2023-10-13T13:40:53;12.97;;;6.17;;
3189;SDS011;1606;51.946;10.558;2023-10-13T13:43:21;16.03;;;7.17;;
3189;SDS011;1606;51.946;10.558;2023-10-13T13:46:07;17.20;;;6.40;;
3189;SDS011;1606;51.946;10.558;2023-10-13T13:48:39;14.17;;;7.20;;
3189;SDS011;1606;51.946;10.558;2023-10-13T13:51:08;19.37;;;7.87;;
3189;SDS011;1606;51.946;10.558;2023-10-13T13:53:41;17.80;;;7.63;;
3189;SDS011;1606;51.946;10.558;2023-10-13T13:56:15;16.40;;;7.20;;
3189;SDS011;1606;51.946;10.558;2023-10-13T13:58:44;15.63;;;7.37;;
3189;SDS011;1606;51.946;10.558;2023-10-13T14:01:13;15.90;;;7.73;;
3189;SDS011;1606;51.946;10.558;2023-10-13T14:03:45;16.60;;;6.83;;
3189;SDS011;1606;51.946;10.558;2023-10-13T14:06:14;17.97;;;7.83;;
3189;SDS011;1606;51.946;10.558;2023-10-13T14:08:51;15.03;;;7.07;;
3189;SDS011;1606;51.946;10.558;2023-10-13T14:11:22;15.80;;;7.03;;
3189;SDS011;1606;51.946;10.558;2023-10-13T14:14:05;19.83;;;6.90;;
3189;SDS011;1606;51.946;10.558;2023-10-13T14:16:39;16.33;;;6.70;;
3189;SDS011;1606;51.946;10.558;2023-10-13T14:19:12;13.33;;;7.37;;
3189;SDS011;1606;51.946;10.558;2023-10-13T14:21:46;17.00;;;7.73;;
3189;SDS011;1606;51.946;10.558;2023-10-13T14:24:20;14.70;;;6.90;;
3189;SDS011;1606;51.946;10.558;2023-10-13T14:26:53;23.30;;;7.13;;
3189;SDS011;1606;51.946;10.558;2023-10-13T14:29:21;15.90;;;7.40;;
3189;SDS011;1606;51.946;10.558;2023-10-13T14:31:53;16.43;;;7.17;;
3189;SDS011;1606;51.946;10.558;2023-10-13T14:34:22;16.20;;;7.50;;
3189;SDS011;1606;51.946;10.558;2023-10-13T14:36:52;18.27;;;7.10;;
3189;SDS011;1606;51.946;10.558;2023-10-13T14:39:20;16.47;;;8.10;;
3189;SDS011;1606;51.946;10.558;2023-10-13T14:41:48;16.80;;;7.50;;
3189;SDS011;1606;51.946;10.558;2023-10-13T14:44:16;15.83;;;6.73;;
3189;SDS011;1606;51.946;10.558;2023-10-13T14:46:45;16.43;;;7.30;;
3189;SDS011;1606;51.946;10.558;2023-10-13T14:49:13;14.10;;;6.80;;
3189;SDS011;1606;51.946;10.558;2023-10-13T14:51:46;15.50;;;7.10;;
3189;SDS011;1606;51.946;10.558;2023-10-13T14:54:16;15.93;;;7.20;;
3189;SDS011;1606;51.946;10.558;2023-10-13T14:56:51;17.93;;;7.57;;
3189;SDS011;1606;51.946;10.558;2023-10-13T14:59:21;14.13;;;6.60;;
3189;SDS011;1606;51.946;10.558;2023-10-13T15:01:49;13.83;;;7.17;;
3189;SDS011;1606;51.946;10.558;2023-10-13T15:04:17;18.27;;;7.10;;
3189;SDS011;1606;51.946;10.558;2023-10-13T15:06:52;21.93;;;7.80;;
3189;SDS011;1606;51.946;10.558;2023-10-13T15:09:20;17.90;;;5.90;;
3189;SDS011;1606;51.946;10.558;2023-10-13T15:11:50;20.23;;;6.67;;
3189;SDS011;1606;51.946;10.558;2023-10-13T15:14:20;19.70;;;7.67;;
3189;SDS011;1606;51.946;10.558;2023-10-13T15:16:49;22.53;;;6.83;;
3189;SDS011;1606;51.946;10.558;2023-10-13T15:19:20;18.47;;;7.30;;
3189;SDS011;1606;51.946;10.558;2023-10-13T15:21:49;21.33;;;7.60;;
3189;SDS011;1606;51.946;10.558;2023-10-13T15:24:20;19.00;;;8.50;;
3189;SDS011;1606;51.946;10.558;2023-10-13T15:26:56;14.60;;;6.60;;
3189;SDS011;1606;51.946;10.558;2023-10-13T15:29:29;17.97;;;6.93;;
3189;SDS011;1606;51.946;10.558;2023-10-13T15:32:03;17.93;;;8.57;;
3189;SDS011;1606;51.946;10.558;2023-10-13T15:34:48;22.23;;;7.57;;
3189;SDS011;1606;51.946;10.558;2023-10-13T15:37:16;15.00;;;6.63;;
3189;SDS011;1606;51.946;10.558;2023-10-13T15:39:47;16.47;;;7.67;;
3189;SDS011;1606;51.946;10.558;2023-10-13T15:42:15;16.50;;;6.53;;
3189;SDS011;1606;51.946;10.558;2023-10-13T15:44:44;16.17;;;7.53;;
3189;SDS011;1606;51.946;10.558;2023-10-13T15:47:14;14.90;;;6.97;;